createdAt,value
2019-02-24T00:01:45.421Z,66.41
2019-02-24T00:04:16.430Z,66.47
2019-02-24T00:06:47.410Z,66.71
2019-02-24T00:09:18.314Z,66.84
2019-02-24T00:11:49.254Z,67.18
2019-02-24T00:14:20.256Z,67.22
2019-02-24T00:16:51.351Z,67.52
2019-02-24T00:19:22.435Z,67.46
2019-02-24T00:21:53.654Z,67.42
2019-02-24T00:24:24.534Z,67.35
2019-02-24T00:26:55.559Z,67.21
2019-02-24T00:29:26.529Z,67.09
2019-02-24T00:31:57.501Z,67.35
2019-02-24T00:34:28.513Z,67.83
2019-02-24T00:36:59.408Z,68.34
2019-02-24T00:39:30.413Z,68.35
2019-02-24T00:42:01.413Z,68.14
2019-02-24T00:44:32.438Z,67.86
2019-02-24T00:47:03.440Z,67.95
2019-02-24T00:49:34.346Z,68.18
2019-02-24T00:52:05.300Z,68.41
2019-02-24T00:54:36.356Z,68.73
2019-02-24T00:57:07.283Z,69.32
2019-02-24T00:59:38.650Z,68.88
2019-02-24T01:02:11.182Z,69.17
2019-02-24T01:04:42.332Z,68.95
2019-02-24T01:07:13.315Z,69.04
2019-02-24T01:09:44.313Z,68.73
2019-02-24T01:12:15.275Z,68.90
2019-02-24T01:14:46.264Z,68.52
2019-02-24T01:17:17.308Z,68.29
2019-02-24T01:19:48.342Z,68.37
2019-02-24T01:22:19.312Z,68.79
2019-02-24T01:24:50.301Z,69.01
2019-02-24T01:27:21.327Z,69.96
2019-02-24T01:29:52.378Z,70.63
2019-02-24T01:32:23.326Z,70.90
2019-02-24T01:34:54.275Z,71.49
2019-02-24T01:37:25.252Z,71.99
2019-02-24T01:39:56.217Z,71.77
2019-02-24T01:42:27.195Z,72.41
2019-02-24T01:44:58.164Z,72.16
2019-02-24T01:47:29.156Z,72.07
2019-02-24T01:50:00.284Z,72.54
2019-02-24T01:52:31.200Z,73.14
2019-02-24T01:55:02.094Z,73.32
2019-02-24T01:57:32.966Z,73.37
2019-02-24T02:00:04.998Z,73.57
2019-02-24T02:02:35.918Z,74.02
2019-02-24T02:05:07.832Z,76.00
2019-02-24T02:07:38.730Z,75.21
2019-02-24T02:10:09.774Z,74.93
2019-02-24T02:12:40.664Z,74.75
2019-02-24T02:15:13.115Z,75.04
2019-02-24T02:17:44.155Z,75.06
2019-02-24T02:20:15.111Z,75.78
2019-02-24T02:22:46.121Z,75.33
2019-02-24T02:25:17.017Z,75.28
2019-02-24T02:27:47.985Z,74.81
2019-02-24T02:30:18.996Z,74.47
2019-02-24T02:32:50.037Z,74.21
2019-02-24T02:35:21.047Z,73.79
2019-02-24T02:37:52.070Z,74.11
2019-02-24T02:40:22.969Z,74.44
2019-02-24T02:42:53.874Z,74.40
2019-02-24T02:45:24.836Z,75.58
2019-02-24T02:47:55.749Z,75.42
2019-02-24T02:50:26.660Z,76.16
2019-02-24T02:52:57.709Z,76.33
2019-02-24T02:55:28.676Z,76.62
2019-02-24T02:57:59.574Z,76.38
2019-02-24T03:00:35.275Z,77.26
2019-02-24T03:03:06.277Z,76.76
2019-02-24T03:05:37.316Z,76.52
2019-02-24T03:08:09.927Z,76.42
2019-02-24T03:10:40.909Z,76.36
2019-02-24T03:13:11.859Z,76.36
2019-02-24T03:15:42.813Z,76.80
2019-02-24T03:18:13.695Z,76.61
2019-02-24T03:20:44.612Z,77.07
2019-02-24T03:23:15.573Z,77.42
2019-02-24T03:25:46.463Z,77.53
2019-02-24T03:28:17.383Z,77.73
2019-02-24T03:30:48.241Z,78.08
2019-02-24T03:33:19.139Z,78.40
2019-02-24T03:35:50.223Z,78.42
2019-02-24T03:38:21.068Z,78.27
2019-02-24T03:40:52.049Z,78.63
2019-02-24T03:43:23.080Z,78.75
2019-02-24T03:45:53.984Z,79.21
2019-02-24T03:48:24.947Z,79.09
2019-02-24T03:50:55.944Z,79.05
2019-02-24T03:53:26.949Z,79.77
2019-02-24T03:55:57.959Z,79.99
2019-02-24T03:58:28.973Z,80.84
2019-02-24T04:00:59.963Z,80.85
2019-02-24T04:03:30.987Z,80.07
2019-02-24T04:06:01.899Z,79.50
2019-02-24T04:08:32.758Z,79.36
2019-02-24T04:11:03.768Z,78.57
2019-02-24T04:13:34.753Z,77.91
2019-02-24T04:16:05.682Z,77.54
2019-02-24T04:18:36.729Z,77.09
2019-02-24T04:21:07.687Z,77.06
2019-02-24T04:23:38.566Z,77.57
2019-02-24T04:26:09.457Z,77.83
2019-02-24T04:28:40.488Z,78.33
2019-02-24T04:31:11.425Z,78.68
2019-02-24T04:33:42.502Z,79.19
2019-02-24T04:36:13.450Z,79.26
2019-02-24T04:38:44.430Z,78.78
2019-02-24T04:41:15.319Z,78.31
2019-02-24T04:43:46.216Z,78.33
2019-02-24T04:46:17.210Z,78.76
2019-02-24T04:48:48.121Z,78.69
2019-02-24T04:51:19.018Z,78.51
2019-02-24T04:53:50.066Z,78.26
2019-02-24T04:56:20.966Z,77.95
2019-02-24T04:58:51.852Z,77.85
2019-02-24T05:01:22.850Z,78.05
2019-02-24T05:03:53.773Z,78.17
2019-02-24T05:06:24.660Z,78.25
2019-02-24T05:08:55.714Z,78.25
2019-02-24T05:11:26.666Z,78.14
2019-02-24T05:14:09.596Z,78.22
2019-02-24T05:16:42.700Z,78.28
2019-02-24T05:19:13.699Z,78.17
2019-02-24T05:21:44.640Z,77.96
2019-02-24T05:24:15.615Z,77.00
2019-02-24T05:26:46.528Z,76.51
2019-02-24T05:29:17.495Z,76.29
2019-02-24T05:31:48.461Z,76.05
2019-02-24T05:34:19.421Z,76.07
2019-02-24T05:36:50.426Z,76.33
2019-02-24T05:39:21.349Z,76.77
2019-02-24T05:41:52.259Z,77.18
2019-02-24T05:44:23.353Z,77.61
2019-02-24T05:46:54.174Z,77.85
2019-02-24T05:49:25.074Z,77.81
2019-02-24T05:51:56.103Z,77.71
2019-02-24T05:54:27.072Z,78.52
2019-02-24T05:56:58.028Z,78.68
2019-02-24T05:59:28.970Z,78.44
2019-02-24T06:01:59.977Z,78.83
2019-02-24T06:04:30.932Z,79.10
2019-02-24T06:07:01.894Z,78.69
2019-02-24T06:09:32.860Z,78.56
2019-02-24T06:12:03.763Z,78.13
2019-02-24T06:14:34.666Z,78.14
2019-02-24T06:17:05.726Z,78.46
2019-02-24T06:19:36.660Z,78.58
2019-02-24T06:22:07.550Z,78.60
2019-02-24T06:24:38.424Z,79.06
2019-02-24T06:27:09.346Z,79.02
2019-02-24T06:29:40.220Z,80.58
2019-02-24T06:32:11.237Z,82.30
2019-02-24T06:34:42.315Z,81.47
2019-02-24T06:37:13.253Z,80.70
2019-02-24T06:39:44.140Z,80.24
2019-02-24T06:42:15.133Z,79.92
2019-02-24T06:44:46.097Z,79.17
2019-02-24T06:47:17.070Z,77.75
2019-02-24T06:49:47.944Z,76.48
2019-02-24T06:52:20.582Z,75.88
2019-02-24T06:54:51.529Z,74.23
2019-02-24T06:57:22.580Z,74.00
2019-02-24T06:59:53.447Z,73.38
2019-02-24T07:02:24.413Z,71.30
2019-02-24T07:04:55.283Z,70.42
2019-02-24T07:07:26.291Z,69.24
2019-02-24T07:09:57.297Z,68.90
2019-02-24T07:12:28.207Z,67.67
2019-02-24T07:14:59.123Z,67.03
2019-02-24T07:17:30.013Z,66.99
2019-02-24T07:20:00.915Z,65.22
2019-02-24T07:22:31.789Z,63.11
2019-02-24T07:25:02.829Z,61.86
2019-02-24T07:27:33.697Z,61.13
2019-02-24T07:30:06.639Z,60.93
2019-02-24T07:32:37.597Z,60.78
2019-02-24T07:35:08.457Z,60.58
2019-02-24T07:37:39.344Z,60.15
2019-02-24T07:40:10.383Z,59.81
2019-02-24T07:42:41.424Z,59.29
2019-02-24T07:45:12.241Z,57.57
2019-02-24T07:47:43.193Z,57.64
2019-02-24T07:50:14.181Z,56.63
2019-02-24T07:52:45.103Z,55.29
2019-02-24T07:55:16.018Z,53.60
2019-02-24T07:57:46.947Z,54.44
2019-02-24T08:00:18.017Z,52.78
2019-02-24T08:02:48.904Z,51.15
2019-02-24T08:05:19.887Z,49.60
2019-02-24T08:07:50.875Z,47.63
2019-02-24T08:10:21.781Z,47.71
2019-02-24T08:12:52.745Z,46.11
2019-02-24T08:15:23.947Z,44.36
2019-02-24T08:17:54.967Z,43.06
2019-02-24T08:20:25.928Z,42.06
2019-02-24T08:22:56.805Z,41.62
2019-02-24T08:25:27.718Z,40.54
2019-02-24T08:27:58.700Z,40.48
2019-02-24T08:30:29.617Z,39.36
2019-02-24T08:33:00.637Z,39.34
2019-02-24T08:35:31.620Z,38.44
2019-02-24T08:38:02.580Z,37.62
2019-02-24T08:40:33.459Z,36.79
2019-02-24T08:43:04.418Z,34.73
2019-02-24T08:45:35.353Z,35.41
2019-02-24T08:48:06.314Z,35.54
2019-02-24T08:50:37.265Z,34.86
2019-02-24T08:53:08.291Z,34.86
2019-02-24T08:55:39.208Z,34.49
2019-02-24T08:58:10.213Z,33.54
2019-02-24T09:00:50.485Z,32.62
2019-02-24T09:03:13.909Z,31.75
2019-02-24T09:05:44.844Z,31.42
2019-02-24T09:08:15.828Z,31.14
2019-02-24T09:10:46.742Z,30.68
2019-02-24T09:13:17.624Z,30.98
2019-02-24T09:15:48.574Z,30.63
2019-02-24T09:18:19.531Z,29.41
2019-02-24T09:20:50.631Z,29.40
2019-02-24T09:23:21.517Z,29.02
2019-02-24T09:25:52.498Z,29.42
2019-02-24T09:28:23.395Z,30.36
2019-02-24T09:31:00.917Z,31.46
2019-02-24T09:33:27.111Z,31.77
2019-02-24T09:35:58.065Z,32.41
2019-02-24T09:38:28.982Z,32.71
2019-02-24T09:41:01.305Z,32.89
2019-02-24T09:43:32.346Z,32.23
2019-02-24T09:46:03.312Z,32.65
2019-02-24T09:48:34.147Z,33.03
2019-02-24T09:51:05.233Z,33.00
2019-02-24T09:53:36.168Z,32.50
2019-02-24T09:56:07.154Z,32.41
2019-02-24T09:58:38.022Z,32.26
2019-02-24T10:01:10.903Z,31.59
2019-02-24T10:03:41.625Z,31.82
2019-02-24T10:06:12.538Z,32.16
2019-02-24T10:08:43.530Z,32.01
2019-02-24T10:11:14.442Z,31.18
2019-02-24T10:13:45.456Z,31.29
2019-02-24T10:16:16.555Z,31.74
2019-02-24T10:18:47.586Z,30.56
2019-02-24T10:21:18.582Z,30.23
2019-02-24T10:23:49.471Z,30.72
2019-02-24T10:26:20.402Z,30.94
2019-02-24T10:28:51.442Z,30.51
2019-02-24T10:31:22.368Z,31.12
2019-02-24T10:33:53.331Z,32.46
2019-02-24T10:36:24.368Z,31.48
2019-02-24T10:38:55.508Z,28.88
2019-02-24T10:41:26.492Z,26.51
2019-02-24T10:43:57.450Z,25.15
2019-02-24T10:46:28.511Z,24.21
2019-02-24T10:49:03.308Z,23.83
2019-02-24T10:51:32.085Z,21.95
2019-02-24T10:54:02.999Z,21.30
2019-02-24T10:56:33.985Z,21.26
2019-02-24T10:59:05.081Z,20.98
2019-02-24T11:01:36.068Z,21.51
2019-02-24T11:04:07.122Z,20.52
2019-02-24T11:06:38.098Z,21.85
2019-02-24T11:09:09.553Z,19.94
2019-02-24T11:11:40.578Z,20.56
2019-02-24T11:14:13.004Z,19.57
2019-02-24T11:16:43.979Z,18.77
2019-02-24T11:19:15.170Z,19.37
2019-02-24T11:21:46.261Z,20.14
2019-02-24T11:24:17.162Z,21.36
2019-02-24T11:26:48.082Z,22.08
2019-02-24T11:29:19.108Z,22.75
2019-02-24T11:31:50.173Z,23.27
2019-02-24T11:34:21.185Z,21.92
2019-02-24T11:36:52.159Z,19.76
2019-02-24T11:39:23.128Z,18.69
2019-02-24T11:41:54.062Z,18.74
2019-02-24T11:44:25.035Z,19.33
2019-02-24T11:46:56.203Z,20.54
2019-02-24T11:49:27.233Z,20.94
2019-02-24T11:52:03.837Z,20.51
2019-02-24T11:54:30.871Z,20.93
2019-02-24T11:57:03.238Z,22.62
2019-02-24T11:59:34.131Z,24.05
2019-02-24T12:02:05.185Z,22.75
2019-02-24T12:04:36.231Z,21.81
2019-02-24T12:07:07.224Z,22.01
2019-02-24T12:09:38.216Z,20.78
2019-02-24T12:12:09.260Z,19.00
2019-02-24T12:14:40.168Z,18.03
2019-02-24T12:17:11.069Z,18.31
2019-02-24T12:19:42.133Z,17.13
2019-02-24T12:22:13.151Z,17.76
2019-02-24T12:24:44.137Z,18.64
2019-02-24T12:27:15.081Z,19.26
2019-02-24T12:29:46.145Z,19.60
2019-02-24T12:32:17.078Z,19.62
2019-02-24T12:34:48.475Z,18.83
2019-02-24T12:37:19.598Z,19.32
2019-02-24T12:39:50.523Z,18.28
2019-02-24T12:42:21.465Z,17.63
2019-02-24T12:44:52.627Z,17.54
2019-02-24T12:47:23.568Z,16.96
2019-02-24T12:50:02.926Z,17.26
2019-02-24T12:52:27.239Z,18.10
2019-02-24T12:54:58.137Z,18.76
2019-02-24T12:57:29.022Z,18.05
2019-02-24T12:59:59.982Z,18.05
2019-02-24T13:02:30.884Z,16.51
2019-02-24T13:05:01.887Z,16.76
2019-02-24T13:07:32.769Z,15.48
2019-02-24T13:10:05.210Z,14.92
2019-02-24T13:12:36.083Z,14.52
2019-02-24T13:15:07.207Z,15.61
2019-02-24T13:17:38.309Z,14.92
2019-02-24T13:20:10.959Z,14.75
2019-02-24T13:22:42.156Z,15.00
2019-02-24T13:25:13.779Z,14.74
2019-02-24T13:27:44.768Z,14.66
2019-02-24T13:30:17.079Z,14.54
2019-02-24T13:32:48.105Z,13.42
2019-02-24T13:35:19.129Z,13.40
2019-02-24T13:37:50.276Z,13.81
2019-02-24T13:40:21.231Z,14.17
2019-02-24T13:42:52.201Z,14.03
2019-02-24T13:45:23.538Z,15.03
2019-02-24T13:47:54.539Z,15.12
2019-02-24T13:50:25.422Z,15.20
2019-02-24T13:52:56.553Z,14.88
2019-02-24T13:55:27.504Z,14.76
2019-02-24T13:57:58.442Z,14.52
2019-02-24T14:00:29.655Z,14.89
2019-02-24T14:03:00.610Z,14.78
2019-02-24T14:05:31.626Z,15.55
2019-02-24T14:08:02.784Z,14.77
2019-02-24T14:10:33.766Z,14.87
2019-02-24T14:13:04.787Z,14.41
2019-02-24T14:15:35.726Z,15.07
2019-02-24T14:18:06.742Z,15.51
2019-02-24T14:20:37.850Z,14.98
2019-02-24T14:23:08.683Z,14.39
2019-02-24T14:25:39.663Z,13.90
2019-02-24T14:28:10.765Z,14.54
2019-02-24T14:30:41.739Z,14.59
2019-02-24T14:33:12.663Z,14.43
2019-02-24T14:35:43.618Z,14.83
2019-02-24T14:38:14.674Z,15.17
2019-02-24T14:40:45.697Z,14.94
2019-02-24T14:43:16.702Z,14.94
2019-02-24T14:45:49.841Z,14.82
2019-02-24T14:48:20.222Z,15.76
2019-02-24T14:50:51.160Z,15.76
2019-02-24T14:53:22.120Z,14.95
2019-02-24T14:55:53.110Z,15.36
2019-02-24T14:58:24.186Z,15.17
2019-02-24T15:00:55.218Z,15.37
2019-02-24T15:03:26.282Z,15.28
2019-02-24T15:05:57.320Z,15.61
2019-02-24T15:08:28.338Z,16.07
2019-02-24T15:10:59.322Z,16.03
2019-02-24T15:13:30.280Z,15.60
2019-02-24T15:16:01.195Z,15.46
2019-02-24T15:18:32.170Z,15.29
2019-02-24T15:21:03.292Z,15.37
2019-02-24T15:23:34.278Z,15.77
2019-02-24T15:26:05.326Z,15.96
2019-02-24T15:28:36.617Z,15.23
2019-02-24T15:31:07.558Z,15.54
2019-02-24T15:33:38.544Z,16.10
2019-02-24T15:36:09.497Z,16.06
2019-02-24T15:38:40.550Z,16.11
2019-02-24T15:41:11.594Z,16.01
2019-02-24T15:43:42.521Z,15.99
2019-02-24T15:46:13.522Z,16.07
2019-02-24T15:48:44.457Z,16.57
2019-02-24T15:51:15.400Z,16.95
2019-02-24T15:53:46.290Z,17.06
2019-02-24T15:56:17.337Z,17.65
2019-02-24T15:58:48.324Z,18.20
2019-02-24T16:01:19.418Z,18.67
2019-02-24T16:03:50.422Z,18.57
2019-02-24T16:06:21.493Z,18.88
2019-02-24T16:08:52.617Z,19.57
2019-02-24T16:11:23.500Z,19.90
2019-02-24T16:13:54.391Z,20.05
2019-02-24T16:16:25.361Z,20.31
2019-02-24T16:18:56.513Z,20.45
2019-02-24T16:21:27.592Z,21.08
2019-02-24T16:23:58.577Z,21.59
2019-02-24T16:26:29.594Z,21.85
2019-02-24T16:29:00.545Z,21.86
2019-02-24T16:31:31.449Z,22.34
2019-02-24T16:34:02.391Z,22.77
2019-02-24T16:36:33.355Z,22.98
2019-02-24T16:39:04.825Z,23.60
2019-02-24T16:41:35.717Z,24.59
2019-02-24T16:44:06.789Z,26.29
2019-02-24T16:46:37.944Z,26.54
2019-02-24T16:49:08.837Z,27.05
2019-02-24T16:51:39.939Z,27.09
2019-02-24T16:54:11.087Z,27.54
2019-02-24T16:56:42.135Z,27.96
2019-02-24T16:59:13.137Z,27.81
2019-02-24T17:01:44.074Z,28.04
2019-02-24T17:04:15.040Z,28.12
2019-02-24T17:06:46.313Z,28.61
2019-02-24T17:09:18.763Z,29.35
2019-02-24T17:11:49.732Z,29.89
2019-02-24T17:14:20.688Z,29.68
2019-02-24T17:16:51.653Z,30.12
2019-02-24T17:19:22.629Z,29.83
2019-02-24T17:21:53.829Z,31.15
2019-02-24T17:24:24.731Z,31.84
2019-02-24T17:26:55.767Z,32.45
2019-02-24T17:29:26.699Z,33.12
2019-02-24T17:31:57.585Z,33.06
2019-02-24T17:34:28.550Z,33.34
2019-02-24T17:36:59.536Z,34.73
2019-02-24T17:39:30.483Z,34.82
2019-02-24T17:42:01.695Z,35.13
2019-02-24T17:44:32.743Z,34.88
2019-02-24T17:47:03.937Z,34.71
2019-02-24T17:49:34.900Z,34.74
2019-02-24T17:52:05.807Z,35.23
2019-02-24T17:54:36.793Z,36.16
2019-02-24T17:57:07.741Z,36.95
2019-02-24T17:59:45.011Z,36.94
2019-02-24T18:02:15.899Z,37.34
2019-02-24T18:04:47.326Z,37.30
2019-02-24T18:07:18.407Z,38.09
2019-02-24T18:09:52.723Z,40.16
2019-02-24T18:12:23.624Z,41.92
2019-02-24T18:14:54.600Z,41.88
2019-02-24T18:17:25.471Z,41.96
2019-02-24T18:19:56.466Z,44.24
2019-02-24T18:22:27.764Z,43.25
2019-02-24T18:25:03.085Z,43.25
2019-02-24T18:27:31.325Z,42.63
2019-02-24T18:30:02.308Z,43.02
2019-02-24T18:38:12.715Z,47.58
2019-02-24T18:40:43.839Z,46.10
2019-02-24T18:43:14.789Z,44.91
2019-02-24T18:45:45.804Z,45.50
2019-02-24T18:48:16.750Z,46.20
2019-02-24T18:50:47.624Z,45.43
2019-02-24T18:53:18.482Z,46.39
2019-02-24T18:55:49.388Z,46.66
2019-02-24T18:58:21.149Z,47.09
2019-02-24T19:00:52.211Z,47.17
2019-02-24T19:03:23.094Z,47.01
2019-02-24T19:05:53.972Z,47.61
2019-02-24T19:08:24.891Z,48.24
2019-02-24T19:10:55.758Z,48.31
2019-02-24T19:13:26.619Z,48.27
2019-02-24T19:15:57.727Z,49.24
2019-02-24T19:18:28.826Z,50.32
2019-02-24T19:20:59.698Z,49.25
2019-02-24T19:23:30.654Z,49.63
2019-02-24T19:26:01.626Z,50.35
2019-02-24T19:28:32.621Z,51.19
2019-02-24T19:31:03.506Z,51.26
2019-02-24T19:33:34.402Z,51.31
2019-02-24T19:36:05.328Z,51.71
2019-02-24T19:38:36.360Z,51.32
2019-02-24T19:41:07.314Z,51.81
2019-02-24T19:43:38.292Z,53.27
2019-02-24T19:46:09.135Z,54.10
2019-02-24T19:48:42.256Z,54.82
2019-02-24T19:51:12.668Z,54.90
2019-02-24T19:53:43.534Z,54.87
2019-02-24T19:56:14.392Z,54.73
2019-02-24T19:58:47.490Z,54.70
2019-02-24T20:01:17.837Z,54.22
2019-02-24T20:03:50.415Z,53.84
2019-02-24T20:06:21.332Z,53.07
2019-02-24T20:08:52.274Z,52.67
2019-02-24T20:11:23.200Z,53.15
2019-02-24T20:13:54.216Z,53.56
2019-02-24T20:16:25.153Z,53.50
2019-02-24T20:18:56.016Z,53.82
2019-02-24T20:21:26.905Z,53.76
2019-02-24T20:23:57.772Z,54.23
2019-02-24T20:26:28.691Z,53.92
2019-02-24T20:28:59.490Z,53.26
2019-02-24T20:31:30.355Z,54.07
2019-02-24T20:34:02.190Z,54.59
2019-02-24T20:36:33.036Z,53.90
2019-02-24T20:39:04.581Z,54.06
2019-02-24T20:41:35.418Z,53.60
2019-02-24T20:44:06.281Z,53.15
2019-02-24T20:46:37.135Z,53.89
2019-02-24T20:49:07.998Z,55.11
2019-02-24T20:51:38.894Z,55.12
2019-02-24T20:54:09.929Z,55.75
2019-02-24T20:56:41.113Z,55.87
2019-02-24T20:59:12.162Z,55.68
2019-02-24T21:01:43.129Z,57.32
2019-02-24T21:04:13.979Z,56.68
2019-02-24T21:06:44.955Z,56.93
2019-02-24T21:09:15.823Z,56.94
2019-02-24T21:11:48.389Z,55.78
2019-02-24T21:14:19.797Z,55.05
2019-02-24T21:16:50.793Z,55.28
2019-02-24T21:19:21.697Z,55.18
2019-02-24T21:21:52.559Z,55.75
2019-02-24T21:24:23.499Z,56.14
2019-02-24T21:26:54.339Z,56.48
2019-02-24T21:29:25.226Z,56.47
2019-02-24T21:31:56.040Z,57.59
2019-02-24T21:34:26.969Z,57.79
2019-02-24T21:36:57.799Z,58.05
2019-02-24T21:39:28.643Z,58.40
2019-02-24T21:41:59.492Z,58.41
2019-02-24T21:44:30.394Z,58.49
2019-02-24T21:47:01.226Z,58.88
2019-02-24T21:49:32.242Z,59.35
2019-02-24T21:52:03.109Z,59.09
2019-02-24T21:54:34.658Z,58.71
2019-02-24T21:57:05.521Z,57.64
2019-02-24T21:59:37.158Z,57.48
2019-02-24T22:02:08.247Z,58.13
2019-02-24T22:04:39.151Z,57.91
2019-02-24T22:07:09.998Z,57.48
2019-02-24T22:09:40.864Z,58.09
2019-02-24T22:12:11.726Z,58.55
2019-02-24T22:14:42.804Z,58.63
2019-02-24T22:17:13.738Z,58.23
2019-02-24T22:19:44.599Z,58.15
2019-02-24T22:22:15.449Z,58.30
2019-02-24T22:24:46.311Z,59.42
2019-02-24T22:27:17.257Z,59.73
2019-02-24T22:29:48.229Z,60.02
2019-02-24T22:32:19.074Z,60.53
2019-02-24T22:34:49.941Z,60.77
2019-02-24T22:37:20.824Z,61.02
2019-02-24T22:39:51.691Z,61.62
2019-02-24T22:42:22.575Z,61.54
2019-02-24T22:44:53.422Z,61.54
2019-02-24T22:47:24.290Z,61.16
2019-02-24T22:49:55.143Z,61.15
2019-02-24T22:52:26.028Z,61.04
2019-02-24T22:54:56.898Z,61.14
2019-02-24T22:57:27.756Z,61.38
2019-02-24T22:59:58.634Z,61.11
2019-02-24T23:02:29.642Z,61.50
2019-02-24T23:05:00.491Z,61.47
2019-02-24T23:07:31.376Z,61.45
2019-02-24T23:10:05.790Z,61.49
2019-02-24T23:12:36.660Z,62.21
2019-02-24T23:15:07.574Z,61.61
2019-02-24T23:17:39.488Z,61.80
2019-02-24T23:20:10.419Z,62.07
2019-02-24T23:22:41.306Z,62.42
2019-02-24T23:25:12.170Z,63.35
2019-02-24T23:27:43.056Z,62.71
2019-02-24T23:30:14.003Z,62.64
2019-02-24T23:32:44.858Z,63.38
2019-02-24T23:35:15.708Z,63.15
2019-02-24T23:37:46.557Z,63.69
2019-02-24T23:40:17.422Z,64.08
2019-02-24T23:42:48.282Z,64.55
2019-02-24T23:45:19.148Z,64.92
2019-02-24T23:47:50.015Z,65.09
2019-02-24T23:50:20.941Z,65.29
2019-02-24T23:52:51.879Z,65.11
2019-02-24T23:55:22.756Z,65.53
2019-02-24T23:57:53.609Z,65.85
